createdAt,value
2023-04-15T00:00:10.071Z,99237.97
2023-04-15T00:02:53.223Z,99237.22
2023-04-15T00:05:26.180Z,99235.41
2023-04-15T00:07:59.916Z,99233.56
2023-04-15T00:10:32.531Z,99238.25
2023-04-15T00:13:05.493Z,99233.56
2023-04-15T00:15:41.508Z,99241.59
2023-04-15T00:18:15.624Z,99240.97
2023-04-15T00:20:48.771Z,99233.78
2023-04-15T00:23:21.595Z,99253.53
2023-04-15T00:25:54.432Z,99225.97
2023-04-15T00:28:28.027Z,99235.84
2023-04-15T00:31:00.908Z,99224.28
2023-04-15T00:33:36.679Z,99227.06
2023-04-15T00:36:11.180Z,99226.31
2023-04-15T00:38:43.963Z,99226.53
2023-04-15T00:41:17.418Z,99232.00
2023-04-15T00:43:50.358Z,99234.78
2023-04-15T00:46:24.071Z,99230.38
2023-04-15T00:48:58.845Z,99235.00
2023-04-15T00:51:33.559Z,99223.41
2023-04-15T00:54:07.827Z,99222.56
2023-04-15T00:56:40.979Z,99235.00
2023-04-15T00:59:15.115Z,99221.63
2023-04-15T01:01:48.512Z,99224.41
2023-04-15T01:04:23.074Z,99235.97
2023-04-15T01:06:56.140Z,99232.44
2023-04-15T01:09:28.934Z,99231.81
2023-04-15T01:12:02.613Z,99232.75
2023-04-15T01:14:36.188Z,99236.50
2023-04-15T01:17:09.808Z,99240.25
2023-04-15T01:19:44.230Z,99227.94
2023-04-15T01:22:17.313Z,99246.03
2023-04-15T01:24:58.637Z,99233.72
2023-04-15T01:27:33.627Z,99237.50
2023-04-15T01:30:07.987Z,99236.50
2023-04-15T01:32:40.873Z,99241.00
2023-04-15T01:35:13.758Z,99238.44
2023-04-15T01:37:47.432Z,99238.66
2023-04-15T01:40:23.068Z,99229.00
2023-04-15T01:42:57.227Z,99234.47
2023-04-15T01:45:30.103Z,99239.19
2023-04-15T01:48:02.957Z,99237.50
2023-04-15T01:50:36.884Z,99234.91
2023-04-15T01:53:09.759Z,99238.75
2023-04-15T01:55:42.566Z,99236.94
2023-04-15T01:58:17.216Z,99237.03
2023-04-15T02:00:50.066Z,99243.47
2023-04-15T02:03:23.323Z,99246.25
2023-04-15T02:05:58.722Z,99247.59
2023-04-15T02:08:31.800Z,99250.47
2023-04-15T02:11:04.653Z,99243.44
2023-04-15T02:13:39.734Z,99245.63
2023-04-15T02:16:19.640Z,99243.31
2023-04-15T02:18:52.860Z,99253.22
2023-04-15T02:21:27.485Z,99246.28
2023-04-15T02:24:00.654Z,99247.34
2023-04-15T02:26:33.595Z,99254.63
2023-04-15T02:29:07.845Z,99257.50
2023-04-15T02:31:42.270Z,99247.97
2023-04-15T02:34:15.284Z,99250.72
2023-04-15T02:36:54.987Z,99249.13
2023-04-15T02:39:28.118Z,99243.13
2023-04-15T02:42:01.113Z,99252.22
2023-04-15T02:44:36.569Z,99255.09
2023-04-15T02:47:11.765Z,99251.69
2023-04-15T02:49:44.388Z,99251.03
2023-04-15T02:52:17.229Z,99247.28
2023-04-15T02:54:50.107Z,99245.75
2023-04-15T02:57:22.984Z,99253.88
2023-04-15T02:59:57.136Z,99242.44
2023-04-15T03:02:35.265Z,99249.59
2023-04-15T03:05:12.654Z,99246.06
2023-04-15T03:07:48.045Z,99246.94
2023-04-15T03:10:21.605Z,99248.88
2023-04-15T03:12:54.454Z,99250.56
2023-04-15T03:15:30.838Z,99252.38
2023-04-15T03:18:03.711Z,99250.56
2023-04-15T03:20:37.309Z,99262.22
2023-04-15T03:23:10.184Z,99253.44
2023-04-15T03:25:43.402Z,99257.09
2023-04-15T03:28:16.286Z,99256.31
2023-04-15T03:30:50.752Z,99255.34
2023-04-15T03:33:23.716Z,99254.50
2023-04-15T03:35:56.645Z,99253.53
2023-04-15T03:38:30.037Z,99266.78
2023-04-15T03:41:02.891Z,99259.75
2023-04-15T03:43:35.808Z,99258.97
2023-04-15T03:46:10.089Z,99257.28
2023-04-15T03:48:42.930Z,99260.06
2023-04-15T03:51:15.806Z,99257.28
2023-04-15T03:53:48.678Z,99258.97
2023-04-15T03:56:21.447Z,99261.84
2023-04-15T03:58:54.283Z,99265.59
2023-04-15T04:01:28.453Z,99258.53
2023-04-15T04:04:01.409Z,99268.16
2023-04-15T04:06:34.773Z,99256.69
2023-04-15T04:09:08.752Z,99261.09
2023-04-15T04:11:41.527Z,99268.16
2023-04-15T04:14:14.296Z,99265.50
2023-04-15T04:16:48.492Z,99269.88
2023-04-15T04:19:21.409Z,99269.03
2023-04-15T04:21:54.330Z,99268.28
2023-04-15T04:24:27.219Z,99273.63
2023-04-15T04:27:00.159Z,99273.63
2023-04-15T04:29:33.222Z,99272.00
2023-04-15T04:32:08.464Z,99272.94
2023-04-15T04:34:41.565Z,99275.59
2023-04-15T04:37:14.545Z,99274.66
2023-04-15T04:39:47.365Z,99278.28
2023-04-15T04:42:20.402Z,99281.84
2023-04-15T04:44:53.624Z,99282.69
2023-04-15T04:47:27.830Z,99282.69
2023-04-15T04:50:00.686Z,99280.09
2023-04-15T04:52:33.647Z,99282.97
2023-04-15T04:55:08.617Z,99278.41
2023-04-15T04:57:41.570Z,99280.75
2023-04-15T05:00:14.979Z,99273.41
2023-04-15T05:02:49.343Z,99277.69
2023-04-15T05:05:22.409Z,99279.41
2023-04-15T05:07:55.230Z,99276.53
2023-04-15T05:10:28.043Z,99283.63
2023-04-15T05:13:00.982Z,99286.84
2023-04-15T05:15:35.031Z,99283.09
2023-04-15T05:18:09.355Z,99282.88
2023-04-15T05:20:42.266Z,99288.03
2023-04-15T05:23:15.260Z,99288.91
2023-04-15T05:25:50.260Z,99286.22
2023-04-15T05:28:23.053Z,99282.78
2023-04-15T05:30:56.337Z,99275.44
2023-04-15T05:33:33.944Z,99280.56
2023-04-15T05:36:07.384Z,99283.03
2023-04-15T05:38:40.264Z,99297.19
2023-04-15T05:41:16.590Z,99294.59
2023-04-15T05:43:51.302Z,99296.50
2023-04-15T05:46:24.301Z,99299.28
2023-04-15T05:48:58.605Z,99292.88
2023-04-15T05:51:31.558Z,99294.59
2023-04-15T05:54:04.493Z,99297.06
2023-04-15T05:56:37.389Z,99298.97
2023-04-15T05:59:10.261Z,99303.28
2023-04-15T06:01:43.188Z,99300.59
2023-04-15T06:04:17.676Z,99298.88
2023-04-15T06:06:50.901Z,99301.34
2023-04-15T06:09:23.743Z,99301.78
2023-04-15T06:11:57.055Z,99304.06
2023-04-15T06:14:30.031Z,99307.31
2023-04-15T06:17:02.843Z,99310.72
2023-04-15T06:19:37.285Z,99308.16
2023-04-15T06:22:10.231Z,99310.81
2023-04-15T06:24:43.116Z,99309.84
2023-04-15T06:27:16.147Z,99321.53
2023-04-15T06:29:49.701Z,99323.56
2023-04-15T06:32:23.848Z,99325.34
2023-04-15T06:34:58.209Z,99326.34
2023-04-15T06:37:31.452Z,99328.13
2023-04-15T06:40:05.209Z,99320.22
2023-04-15T06:42:38.389Z,99320.09
2023-04-15T06:45:12.425Z,99327.28
2023-04-15T06:47:45.355Z,99329.97
2023-04-15T06:50:19.717Z,99322.03
2023-04-15T06:52:52.589Z,99317.63
2023-04-15T06:55:25.409Z,99326.34
2023-04-15T06:57:58.258Z,99334.16
2023-04-15T07:00:31.292Z,99334.91
2023-04-15T07:03:04.357Z,99340.25
2023-04-15T07:05:38.565Z,99346.44
2023-04-15T07:08:11.566Z,99349.13
2023-04-15T07:10:44.417Z,99349.97
2023-04-15T07:13:17.572Z,99345.50
2023-04-15T07:15:50.505Z,99348.19
2023-04-15T07:18:23.537Z,99347.97
2023-04-15T07:20:57.925Z,99348.72
2023-04-15T07:23:31.470Z,99357.59
2023-04-15T07:26:04.623Z,99347.56
2023-04-15T07:28:37.436Z,99354.53
2023-04-15T07:31:13.891Z,99353.56
2023-04-15T07:33:49.418Z,99360.69
2023-04-15T07:36:23.560Z,99353.50
2023-04-15T07:38:56.441Z,99361.31
2023-04-15T07:41:29.406Z,99354.03
2023-04-15T07:44:02.594Z,99356.72
2023-04-15T07:46:35.539Z,99355.78
2023-04-15T07:49:08.706Z,99350.31
2023-04-15T07:51:43.152Z,99353.94
2023-04-15T07:54:16.305Z,99356.50
2023-04-15T07:56:49.204Z,99359.09
2023-04-15T07:59:22.664Z,99353.72
2023-04-15T08:01:55.646Z,99357.16
2023-04-15T08:04:28.747Z,99357.06
2023-04-15T08:07:06.187Z,99355.34
2023-04-15T08:09:39.178Z,99355.34
2023-04-15T08:12:13.550Z,99366.06
2023-04-15T08:14:49.627Z,99357.94
2023-04-15T08:17:22.529Z,99365.63
2023-04-15T08:19:55.591Z,99359.84
2023-04-15T08:22:29.806Z,99354.19
2023-04-15T08:25:03.900Z,99361.91
2023-04-15T08:27:36.750Z,99365.13
2023-04-15T08:30:10.721Z,99359.66
2023-04-15T08:32:43.923Z,99353.25
2023-04-15T08:35:16.905Z,99351.13
2023-04-15T08:37:51.107Z,99358.19
2023-04-15T08:40:29.345Z,99354.44
2023-04-15T08:43:04.571Z,99360.56
2023-04-15T08:45:40.351Z,99359.56
2023-04-15T08:48:17.487Z,99361.41
2023-04-15T08:50:50.436Z,99357.56
2023-04-15T08:53:25.643Z,99355.84
2023-04-15T08:55:59.545Z,99359.47
2023-04-15T08:58:32.879Z,99362.91
2023-04-15T09:01:08.264Z,99360.13
2023-04-15T09:03:41.528Z,99358.41
2023-04-15T09:06:14.903Z,99360.13
2023-04-15T09:08:49.188Z,99360.78
2023-04-15T09:11:23.360Z,99361.50
2023-04-15T09:13:57.545Z,99368.38
2023-04-15T09:16:30.746Z,99365.28
2023-04-15T09:19:22.833Z,99361.31
2023-04-15T09:21:59.683Z,99363.34
2023-04-15T09:24:39.607Z,99359.03
2023-04-15T09:27:12.495Z,99366.44
2023-04-15T09:29:45.359Z,99363.97
2023-04-15T09:32:18.275Z,99372.22
2023-04-15T09:34:51.142Z,99366.25
2023-04-15T09:37:36.711Z,99366.13
2023-04-15T09:40:12.430Z,99366.25
2023-04-15T09:42:57.844Z,99351.75
2023-04-15T09:45:31.058Z,99371.28
2023-04-15T09:48:17.992Z,99377.91
2023-04-15T09:50:53.656Z,99370.41
2023-04-15T09:53:28.421Z,99388.84
2023-04-15T09:56:04.366Z,99382.41
2023-04-15T09:58:38.791Z,99390.13
2023-04-15T10:01:11.869Z,99393.34
2023-04-15T10:03:46.677Z,99398.38
2023-04-15T10:06:19.735Z,99399.22
2023-04-15T10:08:52.681Z,99398.16
2023-04-15T10:11:31.581Z,99402.56
2023-04-15T10:14:05.370Z,99402.78
2023-04-15T10:16:42.716Z,99395.06
2023-04-15T10:19:20.063Z,99402.22
2023-04-15T10:21:53.593Z,99396.75
2023-04-15T10:24:27.118Z,99399.13
2023-04-15T10:27:02.389Z,99390.00
2023-04-15T10:29:35.720Z,99396.75
2023-04-15T10:32:09.193Z,99392.91
2023-04-15T10:34:42.991Z,99400.63
2023-04-15T10:37:22.022Z,99404.81
2023-04-15T10:39:54.846Z,99402.88
2023-04-15T10:42:35.929Z,99404.56
2023-04-15T10:45:18.320Z,99410.47
2023-04-15T10:47:56.886Z,99404.13
2023-04-15T10:50:32.661Z,99406.38
2023-04-15T10:53:06.118Z,99405.97
2023-04-15T10:55:39.178Z,99398.44
2023-04-15T10:58:15.088Z,99401.28
2023-04-15T11:00:53.309Z,99399.03
2023-04-15T11:03:39.157Z,99401.78
2023-04-15T11:06:12.674Z,99405.00
2023-04-15T11:09:00.015Z,99398.84
2023-04-15T11:12:12.168Z,99402.75
2023-04-15T11:14:50.227Z,99409.47
2023-04-15T11:17:34.336Z,99406.13
2023-04-15T11:20:09.720Z,99400.56
2023-04-15T11:22:48.771Z,99409.84
2023-04-15T11:25:27.622Z,99410.06
2023-04-15T11:28:02.169Z,99402.88
2023-04-15T11:30:40.185Z,99409.25
2023-04-15T11:33:14.073Z,99413.59
2023-04-15T11:35:49.013Z,99411.25
2023-04-15T11:38:22.664Z,99417.94
2023-04-15T11:40:55.667Z,99415.91
2023-04-15T11:43:28.544Z,99416.97
2023-04-15T11:46:05.734Z,99418.97
2023-04-15T11:48:46.478Z,99410.66
2023-04-15T11:51:22.754Z,99414.69
2023-04-15T11:53:57.657Z,99418.38
2023-04-15T11:56:34.779Z,99424.72
2023-04-15T11:59:11.901Z,99422.63
2023-04-15T12:01:47.716Z,99425.44
2023-04-15T12:04:25.209Z,99431.34
2023-04-15T12:07:06.594Z,99434.03
2023-04-15T12:09:41.290Z,99431.34
2023-04-15T12:12:14.134Z,99435.59
2023-04-15T12:14:47.456Z,99431.34
2023-04-15T12:17:25.074Z,99434.50
2023-04-15T12:20:00.725Z,99440.47
2023-04-15T12:22:39.270Z,99440.09
2023-04-15T12:25:16.418Z,99439.69
2023-04-15T12:27:53.517Z,99434.19
2023-04-15T12:30:29.536Z,99443.06
2023-04-15T12:33:05.086Z,99438.75
2023-04-15T12:35:37.988Z,99438.25
2023-04-15T12:38:11.115Z,99450.09
2023-04-15T12:40:43.906Z,99448.13
2023-04-15T12:43:16.721Z,99452.81
2023-04-15T12:45:49.583Z,99454.47
2023-04-15T12:48:23.878Z,99451.84
2023-04-15T12:50:56.782Z,99452.50
2023-04-15T12:53:30.070Z,99455.19
2023-04-15T12:56:02.957Z,99461.03
2023-04-15T12:58:36.098Z,99454.88
2023-04-15T13:01:10.240Z,99448.22
2023-04-15T13:03:44.598Z,99452.44
2023-04-15T13:06:20.118Z,99454.63
2023-04-15T13:08:58.315Z,99456.22
2023-04-15T13:11:33.785Z,99457.28
2023-04-15T13:14:08.496Z,99447.63
2023-04-15T13:16:41.847Z,99457.94
2023-04-15T13:19:16.074Z,99463.03
2023-04-15T13:21:48.927Z,99460.09
2023-04-15T13:24:22.871Z,99470.88
2023-04-15T13:26:57.232Z,99469.69
2023-04-15T13:29:30.162Z,99468.34
2023-04-15T13:32:03.267Z,99478.78
2023-04-15T13:34:37.562Z,99485.31
2023-04-15T13:37:10.872Z,99486.78
2023-04-15T13:39:43.837Z,99487.53
2023-04-15T13:42:16.662Z,99487.44
2023-04-15T13:44:50.981Z,99490.88
2023-04-15T13:47:23.915Z,99483.94
2023-04-15T13:49:58.710Z,99490.16
2023-04-15T13:52:31.538Z,99483.69
2023-04-15T13:55:18.291Z,99489.53
2023-04-15T13:57:52.649Z,99491.75
2023-04-15T14:00:25.576Z,99483.88
2023-04-15T14:02:58.532Z,99485.19
2023-04-15T14:05:34.342Z,99488.25
2023-04-15T14:08:07.199Z,99490.44
2023-04-15T14:10:40.091Z,99490.03
2023-04-15T14:13:12.955Z,99482.72
2023-04-15T14:15:46.042Z,99479.13
2023-04-15T14:18:19.036Z,99489.06
2023-04-15T14:20:53.387Z,99482.38
2023-04-15T14:23:26.296Z,99491.94
2023-04-15T14:25:59.468Z,99485.47
2023-04-15T14:28:32.834Z,99486.22
2023-04-15T14:31:05.943Z,99484.88
2023-04-15T14:33:38.964Z,99474.47
2023-04-15T14:36:13.156Z,99489.19
2023-04-15T14:38:48.423Z,99493.81
2023-04-15T14:41:22.403Z,99489.44
2023-04-15T14:43:55.247Z,99494.69
2023-04-15T14:46:28.209Z,99498.00
2023-04-15T14:49:01.165Z,99498.34
2023-04-15T14:51:35.660Z,99500.22
2023-04-15T14:54:08.506Z,99490.41
2023-04-15T14:56:41.497Z,99494.06
2023-04-15T14:59:14.366Z,99495.91
2023-04-15T15:01:47.351Z,99495.78
2023-04-15T15:04:20.717Z,99499.84
2023-04-15T15:06:55.061Z,99501.28
2023-04-15T15:09:28.045Z,99507.25
2023-04-15T15:12:01.904Z,99514.38
2023-04-15T15:14:34.787Z,99526.50
2023-04-15T15:17:07.678Z,99529.81
2023-04-15T15:19:40.554Z,99530.66
2023-04-15T15:22:14.873Z,99540.31
2023-04-15T15:24:47.717Z,99553.50
2023-04-15T15:27:20.635Z,99550.56
2023-04-15T15:29:53.471Z,99548.25
2023-04-15T15:32:26.556Z,99536.03
2023-04-15T15:34:59.412Z,99545.31
2023-04-15T15:37:34.106Z,99542.25
2023-04-15T15:40:08.453Z,99540.88
2023-04-15T15:42:42.687Z,99542.22
2023-04-15T15:45:15.678Z,99538.91
2023-04-15T15:47:49.177Z,99541.72
2023-04-15T15:50:22.233Z,99544.31
2023-04-15T15:52:56.385Z,99543.94
2023-04-15T15:55:30.567Z,99545.41
2023-04-15T15:58:03.491Z,99548.81
2023-04-15T16:00:36.766Z,99546.00
2023-04-15T16:03:11.989Z,99540.03
2023-04-15T16:05:47.078Z,99547.47
2023-04-15T16:08:21.372Z,99541.59
2023-04-15T16:10:54.362Z,99546.22
2023-04-15T16:13:27.226Z,99556.59
2023-04-15T16:16:00.206Z,99564.28
2023-04-15T16:18:35.189Z,99563.91
2023-04-15T16:21:08.218Z,99568.03
2023-04-15T16:23:44.883Z,99564.22
2023-04-15T16:26:20.259Z,99573.59
2023-04-15T16:28:53.050Z,99570.50
2023-04-15T16:31:25.940Z,99575.34
2023-04-15T16:33:59.041Z,99581.16
2023-04-15T16:36:32.504Z,99581.84
2023-04-15T16:39:07.201Z,99581.56
2023-04-15T16:41:40.263Z,99583.84
2023-04-15T16:44:13.472Z,99588.69
2023-04-15T16:46:46.391Z,99603.19
2023-04-15T16:49:19.288Z,99592.78
2023-04-15T16:51:54.088Z,99598.38
2023-04-15T16:54:33.817Z,99606.75
2023-04-15T16:57:09.157Z,99616.03
2023-04-15T16:59:42.345Z,99608.94
2023-04-15T17:02:15.712Z,99619.88
2023-04-15T17:04:48.714Z,99614.72
2023-04-15T17:07:22.132Z,99621.19
2023-04-15T17:09:57.820Z,99626.78
2023-04-15T17:12:31.813Z,99627.00
2023-04-15T17:15:07.441Z,99628.91
2023-04-15T17:17:41.720Z,99631.81
2023-04-15T17:20:14.821Z,99637.63
2023-04-15T17:22:49.091Z,99632.59
2023-04-15T17:25:24.248Z,99638.06
2023-04-15T17:27:57.269Z,99640.84
2023-04-15T17:30:30.438Z,99647.28
2023-04-15T17:33:03.490Z,99650.91
2023-04-15T17:35:56.256Z,99648.47
2023-04-15T17:38:29.180Z,99653.16
2023-04-15T17:41:03.594Z,99649.84
2023-04-15T17:43:36.724Z,99651.91
2023-04-15T17:46:10.337Z,99646.84
2023-04-15T17:48:43.264Z,99653.47
2023-04-15T17:51:17.115Z,99658.28
2023-04-15T17:53:50.268Z,99658.56
2023-04-15T17:56:25.144Z,99666.94
2023-04-15T17:59:00.800Z,99669.81
2023-04-15T18:01:39.306Z,99672.81
2023-04-15T18:04:25.693Z,99673.88
2023-04-15T18:07:00.127Z,99692.97
2023-04-15T18:09:41.537Z,99680.50
2023-04-15T18:12:16.114Z,99692.22
2023-04-15T18:14:50.945Z,99694.13
2023-04-15T18:17:24.152Z,99701.50
2023-04-15T18:19:57.306Z,99698.19
2023-04-15T18:22:30.165Z,99703.66
2023-04-15T18:25:04.290Z,99707.47
2023-04-15T18:27:40.068Z,99719.28
2023-04-15T18:30:13.935Z,99712.28
2023-04-15T18:32:46.814Z,99725.78
2023-04-15T18:35:20.684Z,99732.31
2023-04-15T18:37:54.060Z,99737.88
2023-04-15T18:40:27.050Z,99732.81
2023-04-15T18:43:01.402Z,99736.53
2023-04-15T18:48:32.926Z,99740.78
2023-04-15T18:51:05.894Z,99744.50
2023-04-15T18:53:38.940Z,99751.78
2023-04-15T18:56:11.903Z,99761.84
2023-04-15T18:59:27.516Z,99769.97
2023-04-15T19:01:39.275Z,99771.78
2023-04-15T19:04:12.377Z,99774.63
2023-04-15T19:06:45.417Z,99770.44
2023-04-15T19:09:18.846Z,99774.25
2023-04-15T19:11:51.992Z,99778.88
2023-04-15T19:14:28.061Z,99783.47
2023-04-15T19:17:01.216Z,99789.84
2023-04-15T19:19:36.697Z,99799.81
2023-04-15T19:22:10.240Z,99787.28
2023-04-15T19:24:45.271Z,99789.38
2023-04-15T19:27:19.946Z,99788.22
2023-04-15T19:29:55.922Z,99794.84
2023-04-15T19:32:28.889Z,99804.88
2023-04-15T19:35:01.775Z,99807.75
2023-04-15T19:37:34.633Z,99808.09
2023-04-15T19:40:08.689Z,99809.06
2023-04-15T19:42:42.935Z,99815.44
2023-04-15T19:45:17.414Z,99815.75
2023-04-15T19:47:52.961Z,99813.44
2023-04-15T19:50:27.755Z,99812.81
2023-04-15T19:53:00.992Z,99818.38
2023-04-15T19:55:33.875Z,99830.00
2023-04-15T19:58:06.785Z,99823.91
2023-04-15T20:00:41.176Z,99830.19
2023-04-15T20:03:14.155Z,99831.13
2023-04-15T20:05:47.240Z,99833.03
2023-04-15T20:08:23.405Z,99834.06
2023-04-15T20:10:56.250Z,99835.13
2023-04-15T20:13:29.141Z,99832.53
2023-04-15T20:16:03.471Z,99838.00
2023-04-15T20:18:36.490Z,99842.56
2023-04-15T20:21:09.730Z,99845.25
2023-04-15T20:23:46.789Z,99844.53
2023-04-15T20:26:20.686Z,99847.47
2023-04-15T20:28:55.827Z,99841.28
2023-04-15T20:31:33.298Z,99840.44
2023-04-15T20:34:12.010Z,99851.91
2023-04-15T20:36:45.110Z,99842.22
2023-04-15T20:39:17.949Z,99851.13
2023-04-15T20:41:51.101Z,99854.75
2023-04-15T20:44:23.920Z,99852.34
2023-04-15T20:46:59.624Z,99853.41
2023-04-15T20:49:34.804Z,99855.19
2023-04-15T20:52:09.344Z,99852.41
2023-04-15T20:54:42.185Z,99853.97
2023-04-15T20:57:15.100Z,99862.84
2023-04-15T20:59:48.054Z,99868.13
2023-04-15T21:02:23.411Z,99868.13
2023-04-15T21:04:56.294Z,99865.38
2023-04-15T21:07:29.106Z,99866.22
2023-04-15T21:10:02.105Z,99865.38
2023-04-15T21:12:34.981Z,99871.66
2023-04-15T21:15:08.741Z,99869.06
2023-04-15T21:17:42.724Z,99876.56
2023-04-15T21:20:15.588Z,99868.22
2023-04-15T21:22:48.350Z,99872.03
2023-04-15T21:25:21.336Z,99877.56
2023-04-15T21:27:54.092Z,99872.28
2023-04-15T21:30:26.880Z,99873.31
2023-04-15T21:33:01.275Z,99870.72
2023-04-15T21:35:34.336Z,99873.56
2023-04-15T21:38:07.461Z,99876.41
2023-04-15T21:40:40.782Z,99874.81
2023-04-15T21:43:15.735Z,99878.50
2023-04-15T21:46:21.016Z,99881.25
2023-04-15T21:48:44.526Z,99884.03
2023-04-15T21:51:17.368Z,99884.09
2023-04-15T21:53:52.732Z,99886.09
2023-04-15T21:56:26.081Z,99895.13
2023-04-15T21:58:58.988Z,99899.81
2023-04-15T22:01:31.905Z,99907.91
2023-04-15T22:04:31.459Z,99909.66
2023-04-15T22:07:04.539Z,99910.41
2023-04-15T22:09:37.365Z,99914.91
2023-04-15T22:12:10.570Z,99909.47
2023-04-15T22:14:43.348Z,99916.59
2023-04-15T22:17:16.359Z,99919.19
2023-04-15T22:19:50.563Z,99910.31
2023-04-15T22:22:26.709Z,99917.31
2023-04-15T22:25:10.938Z,99920.84
2023-04-15T22:27:43.721Z,99918.19
2023-04-15T22:30:16.531Z,99920.00
2023-04-15T22:32:49.425Z,99916.44
2023-04-15T22:35:23.665Z,99921.78
2023-04-15T22:37:56.438Z,99912.91
2023-04-15T22:40:29.555Z,99920.00
2023-04-15T22:43:02.352Z,99917.41
2023-04-15T22:45:35.209Z,99921.88
2023-04-15T22:48:08.068Z,99919.28
2023-04-15T22:50:43.094Z,99925.50
2023-04-15T22:53:17.265Z,99925.50
2023-04-15T22:55:50.427Z,99919.28
2023-04-15T22:58:23.413Z,99930.88
2023-04-15T23:00:56.234Z,99926.38
2023-04-15T23:03:29.257Z,99928.19
2023-04-15T23:06:03.542Z,99927.38
2023-04-15T23:08:36.337Z,99934.56
2023-04-15T23:11:09.214Z,99935.41
2023-04-15T23:13:42.041Z,99931.13
2023-04-15T23:16:14.847Z,99940.06
2023-04-15T23:18:47.690Z,99936.63
2023-04-15T23:21:22.856Z,99937.66
2023-04-15T23:23:56.993Z,99941.28
2023-04-15T23:26:29.788Z,99939.47
2023-04-15T23:29:02.733Z,99936.88
2023-04-15T23:31:35.801Z,99944.13
2023-04-15T23:34:08.631Z,99943.25
2023-04-15T23:36:42.809Z,99949.56
2023-04-15T23:39:15.815Z,99941.53
2023-04-15T23:41:49.064Z,99942.63
2023-04-15T23:44:22.337Z,99948.91
2023-04-15T23:46:55.203Z,99947.28
2023-04-15T23:49:28.010Z,99943.72
2023-04-15T23:52:02.253Z,99934.84
2023-04-15T23:54:35.121Z,99944.63
2023-04-15T23:57:07.946Z,99953.41
2023-04-15T23:59:40.711Z,99950.66
